createdAt,value
2023-04-25T00:01:25.207Z,6.18
2023-04-25T00:03:51.995Z,6.21
2023-04-25T00:06:18.759Z,6.07
2023-04-25T00:08:45.280Z,6.01
2023-04-25T00:11:11.825Z,6.13
2023-04-25T00:13:38.377Z,5.99
2023-04-25T00:16:04.833Z,5.97
2023-04-25T00:18:31.404Z,5.78
2023-04-25T00:20:57.973Z,5.83
2023-04-25T00:23:24.577Z,5.83
2023-04-25T00:25:51.089Z,6.00
2023-04-25T00:28:17.701Z,5.71
2023-04-25T00:30:44.137Z,5.91
2023-04-25T00:33:10.681Z,5.57
2023-04-25T00:35:37.212Z,5.88
2023-04-25T00:38:03.676Z,5.86
2023-04-25T00:40:30.203Z,5.55
2023-04-25T00:42:56.827Z,5.68
2023-04-25T00:45:23.416Z,5.55
2023-04-25T00:47:49.948Z,5.68
2023-04-25T00:50:16.514Z,5.25
2023-04-25T00:52:42.985Z,5.55
2023-04-25T00:55:09.576Z,5.37
2023-04-25T00:57:36.124Z,5.57
2023-04-25T01:00:02.591Z,5.45
2023-04-25T01:02:29.162Z,5.29
2023-04-25T01:04:55.774Z,5.16
2023-04-25T01:07:22.303Z,5.30
2023-04-25T01:09:48.868Z,4.91
2023-04-25T01:12:15.326Z,5.17
2023-04-25T01:14:41.774Z,4.75
2023-04-25T01:17:08.433Z,5.14
2023-04-25T01:19:35.012Z,5.08
2023-04-25T01:22:01.470Z,5.07
2023-04-25T01:24:27.929Z,5.37
2023-04-25T01:26:54.416Z,4.88
2023-04-25T01:29:20.906Z,4.78
2023-04-25T01:31:47.491Z,5.09
2023-04-25T01:34:14.034Z,4.97
2023-04-25T01:36:40.531Z,5.05
2023-04-25T01:39:07.090Z,5.10
2023-04-25T01:41:33.614Z,4.74
2023-04-25T01:44:00.121Z,4.99
2023-04-25T01:46:26.722Z,4.73
2023-04-25T01:48:53.215Z,4.88
2023-04-25T01:51:19.892Z,4.70
2023-04-25T01:53:46.316Z,4.81
2023-04-25T01:56:12.869Z,4.53
2023-04-25T01:58:39.376Z,4.61
2023-04-25T02:01:05.898Z,4.56
2023-04-25T02:03:32.563Z,4.38
2023-04-25T02:05:59.243Z,4.55
2023-04-25T02:08:25.729Z,4.61
2023-04-25T02:10:52.295Z,4.67
2023-04-25T02:13:18.791Z,4.26
2023-04-25T02:15:45.375Z,4.32
2023-04-25T02:18:12.033Z,4.61
2023-04-25T02:20:38.674Z,4.38
2023-04-25T02:23:05.153Z,4.54
2023-04-25T02:25:31.675Z,4.33
2023-04-25T02:27:58.121Z,4.48
2023-04-25T02:30:24.665Z,4.26
2023-04-25T02:32:51.199Z,4.06
2023-04-25T02:35:17.819Z,4.19
2023-04-25T02:37:44.394Z,4.35
2023-04-25T02:40:10.932Z,4.55
2023-04-25T02:42:37.433Z,4.36
2023-04-25T02:45:03.855Z,4.34
2023-04-25T02:47:30.426Z,3.90
2023-04-25T02:49:56.947Z,4.94
2023-04-25T02:52:23.449Z,4.53
2023-04-25T02:54:49.937Z,4.23
2023-04-25T02:57:16.492Z,3.95
2023-04-25T02:59:42.959Z,4.09
2023-04-25T03:02:09.560Z,3.98
2023-04-25T03:04:36.229Z,4.13
2023-04-25T03:07:02.782Z,4.09
2023-04-25T03:09:29.307Z,4.16
2023-04-25T03:11:55.888Z,3.94
2023-04-25T03:14:22.468Z,4.03
2023-04-25T03:16:49.045Z,4.08
2023-04-25T03:19:15.624Z,4.38
2023-04-25T03:21:42.165Z,3.99
2023-04-25T03:24:08.640Z,3.94
2023-04-25T03:26:35.151Z,3.97
2023-04-25T03:29:01.673Z,4.10
2023-04-25T03:31:28.215Z,3.89
2023-04-25T03:33:54.753Z,4.08
2023-04-25T03:36:21.227Z,4.14
2023-04-25T03:38:47.767Z,3.88
2023-04-25T03:41:14.249Z,3.91
2023-04-25T03:43:40.811Z,3.99
2023-04-25T03:46:07.424Z,3.77
2023-04-25T03:48:34.014Z,3.67
2023-04-25T03:51:00.506Z,3.75
2023-04-25T03:53:26.990Z,3.89
2023-04-25T03:55:53.487Z,3.86
2023-04-25T03:58:20.029Z,3.83
2023-04-25T04:00:46.540Z,3.55
2023-04-25T04:03:13.267Z,3.78
2023-04-25T04:05:39.961Z,3.75
2023-04-25T04:08:06.536Z,3.86
2023-04-25T04:10:33.034Z,3.49
2023-04-25T04:12:59.490Z,3.55
2023-04-25T04:15:26.011Z,3.43
2023-04-25T04:17:52.516Z,3.50
2023-04-25T04:20:19.037Z,3.62
2023-04-25T04:22:45.482Z,3.50
2023-04-25T04:25:12.010Z,3.46
2023-04-25T04:27:38.469Z,3.39
2023-04-25T04:30:05.023Z,3.42
2023-04-25T04:32:31.674Z,3.41
2023-04-25T04:34:58.236Z,3.44
2023-04-25T04:37:24.651Z,3.35
2023-04-25T04:39:51.233Z,3.53
2023-04-25T04:42:17.771Z,3.39
2023-04-25T04:44:44.213Z,3.59
2023-04-25T04:47:10.706Z,3.10
2023-04-25T04:49:37.307Z,3.13
2023-04-25T04:52:03.905Z,3.21
2023-04-25T04:54:31.383Z,3.37
2023-04-25T04:56:57.871Z,3.07
2023-04-25T04:59:24.380Z,3.85
2023-04-25T05:01:50.998Z,3.92
2023-04-25T05:04:17.614Z,3.78
2023-04-25T05:06:44.511Z,4.06
2023-04-25T05:09:11.895Z,3.83
2023-04-25T05:11:38.438Z,3.85
2023-04-25T05:14:04.982Z,3.71
2023-04-25T05:16:31.500Z,3.63
2023-04-25T05:18:58.997Z,3.59
2023-04-25T05:21:25.673Z,3.92
2023-04-25T05:23:52.362Z,3.53
2023-04-25T05:26:19.078Z,4.20
2023-04-25T05:28:47.582Z,4.42
2023-04-25T05:31:14.085Z,4.86
2023-04-25T05:33:40.521Z,4.81
2023-04-25T05:36:07.011Z,4.70
2023-04-25T05:38:34.967Z,4.61
2023-04-25T05:41:01.682Z,4.38
2023-04-25T05:43:28.134Z,4.23
2023-04-25T05:45:54.775Z,4.14
2023-04-25T05:48:21.354Z,4.12
2023-04-25T05:50:47.892Z,4.20
2023-04-25T05:53:14.368Z,4.14
2023-04-25T05:55:40.865Z,4.09
2023-04-25T05:58:07.276Z,4.04
2023-04-25T06:00:33.702Z,4.17
2023-04-25T06:03:00.339Z,4.02
2023-04-25T06:05:27.028Z,4.34
2023-04-25T06:07:53.557Z,4.14
2023-04-25T06:10:20.059Z,4.01
2023-04-25T06:12:46.499Z,3.69
2023-04-25T06:15:24.340Z,4.02
2023-04-25T06:17:54.290Z,4.04
2023-04-25T06:20:20.768Z,3.93
2023-04-25T06:22:47.159Z,3.76
2023-04-25T06:25:13.579Z,3.84
2023-04-25T06:27:40.096Z,3.80
2023-04-25T06:30:06.534Z,3.72
2023-04-25T06:32:33.057Z,3.81
2023-04-25T06:34:59.549Z,3.57
2023-04-25T06:37:26.032Z,3.68
2023-04-25T06:39:52.450Z,3.84
2023-04-25T06:42:18.926Z,4.05
2023-04-25T06:44:45.486Z,3.79
2023-04-25T06:47:12.013Z,4.18
2023-04-25T06:49:38.531Z,4.27
2023-04-25T06:52:05.018Z,4.10
2023-04-25T06:54:31.440Z,4.31
2023-04-25T06:56:57.913Z,4.43
2023-04-25T06:59:24.397Z,4.92
2023-04-25T07:01:50.851Z,5.08
2023-04-25T07:04:17.551Z,4.50
2023-04-25T07:06:44.282Z,4.25
2023-04-25T07:09:10.807Z,4.30
2023-04-25T07:11:37.302Z,4.24
2023-04-25T07:14:03.731Z,3.89
2023-04-25T07:16:30.177Z,4.28
2023-04-25T07:18:56.745Z,4.30
2023-04-25T07:21:23.248Z,4.06
2023-04-25T07:23:49.786Z,3.86
2023-04-25T07:26:16.231Z,4.00
2023-04-25T07:28:42.674Z,3.75
2023-04-25T07:31:09.145Z,3.66
2023-04-25T07:33:35.656Z,3.98
2023-04-25T07:36:02.183Z,4.00
2023-04-25T07:38:28.672Z,4.00
2023-04-25T07:40:55.102Z,3.74
2023-04-25T07:43:22.815Z,3.64
2023-04-25T07:45:49.367Z,3.49
2023-04-25T07:48:15.850Z,3.47
2023-04-25T07:50:42.305Z,3.70
2023-04-25T07:53:08.696Z,3.85
2023-04-25T07:55:35.185Z,3.20
2023-04-25T07:58:01.769Z,3.40
2023-04-25T08:00:28.281Z,3.53
2023-04-25T08:02:54.918Z,3.44
2023-04-25T08:05:22.960Z,3.57
2023-04-25T08:07:49.671Z,3.56
2023-04-25T08:10:16.161Z,3.48
2023-04-25T08:12:42.698Z,3.48
2023-04-25T08:15:09.229Z,3.37
2023-04-25T08:17:35.751Z,3.36
2023-04-25T08:20:02.280Z,3.28
2023-04-25T08:22:28.884Z,3.08
2023-04-25T08:24:55.405Z,3.08
2023-04-25T08:27:21.899Z,3.16
2023-04-25T08:29:48.413Z,3.16
2023-04-25T08:32:14.901Z,3.44
2023-04-25T08:34:41.360Z,3.06
2023-04-25T08:37:07.861Z,3.24
2023-04-25T08:39:34.295Z,3.16
2023-04-25T08:42:00.881Z,3.12
2023-04-25T08:44:27.481Z,3.37
2023-04-25T08:46:54.048Z,3.27
2023-04-25T08:49:20.595Z,3.07
2023-04-25T08:51:47.210Z,3.07
2023-04-25T08:56:43.021Z,3.06
2023-04-25T08:59:09.556Z,2.98
2023-04-25T09:01:36.208Z,3.04
2023-04-25T09:04:02.958Z,3.15
2023-04-25T09:06:29.592Z,3.04
2023-04-25T09:08:56.068Z,3.11
2023-04-25T09:11:23.704Z,3.02
2023-04-25T09:13:50.671Z,3.13
2023-04-25T09:16:17.307Z,2.95
2023-04-25T09:18:48.599Z,3.06
2023-04-25T09:21:15.469Z,2.94
2023-04-25T09:23:42.005Z,3.23
2023-04-25T09:26:08.685Z,2.99
2023-04-25T09:28:35.283Z,2.82
2023-04-25T09:31:01.819Z,2.70
2023-04-25T09:33:28.360Z,2.88
2023-04-25T09:35:54.883Z,2.91
2023-04-25T09:38:21.459Z,2.61
2023-04-25T09:40:47.976Z,2.81
2023-04-25T09:43:14.543Z,2.71
2023-04-25T09:45:41.163Z,2.81
2023-04-25T09:48:07.909Z,2.73
2023-04-25T09:50:34.506Z,2.78
2023-04-25T09:53:01.006Z,2.53
2023-04-25T09:55:27.560Z,2.78
2023-04-25T09:57:54.092Z,2.80
2023-04-25T10:00:20.647Z,2.78
2023-04-25T10:02:47.131Z,2.80
2023-04-25T10:05:13.729Z,2.73
2023-04-25T10:07:40.370Z,2.84
2023-04-25T10:10:06.942Z,2.72
2023-04-25T10:12:33.693Z,2.57
2023-04-25T10:15:00.277Z,2.39
2023-04-25T10:17:26.955Z,2.55
2023-04-25T10:19:53.471Z,2.67
2023-04-25T10:22:19.958Z,2.44
2023-04-25T10:24:46.395Z,2.39
2023-04-25T10:27:12.957Z,2.40
2023-04-25T10:29:39.494Z,2.33
2023-04-25T10:32:06.070Z,2.36
2023-04-25T10:34:32.678Z,2.56
2023-04-25T10:36:59.149Z,2.24
2023-04-25T10:39:25.635Z,2.15
2023-04-25T10:41:52.116Z,2.25
2023-04-25T10:44:18.618Z,2.87
2023-04-25T10:46:45.180Z,4.84
2023-04-25T10:49:13.666Z,7.14
2023-04-25T10:51:54.978Z,8.17
2023-04-25T10:54:23.342Z,8.95
2023-04-25T10:56:49.935Z,8.82
2023-04-25T10:59:16.405Z,9.71
2023-04-25T11:01:42.974Z,9.18
2023-04-25T11:04:09.706Z,8.44
2023-04-25T11:06:36.314Z,8.39
2023-04-25T11:09:02.845Z,8.45
2023-04-25T11:11:29.372Z,7.79
2023-04-25T11:13:55.820Z,8.08
2023-04-25T11:18:52.097Z,7.21
2023-04-25T11:21:18.771Z,6.79
2023-04-25T11:23:45.213Z,6.23
2023-04-25T11:26:11.768Z,6.39
2023-04-25T11:28:38.279Z,6.33
2023-04-25T11:31:04.778Z,5.92
2023-04-25T11:33:31.308Z,5.67
2023-04-25T11:35:57.859Z,4.91
2023-04-25T11:38:25.326Z,5.04
2023-04-25T11:40:53.173Z,4.76
2023-04-25T11:46:06.190Z,4.39
2023-04-25T11:47:39.754Z,4.58
2023-04-25T11:48:32.733Z,4.30
2023-04-25T11:50:59.216Z,4.17
2023-04-25T11:53:25.705Z,3.96
2023-04-25T11:55:52.217Z,3.72
2023-04-25T11:58:18.704Z,3.70
2023-04-25T12:00:50.569Z,3.62
2023-04-25T12:03:17.521Z,3.65
2023-04-25T12:05:44.274Z,3.31
2023-04-25T12:08:10.931Z,3.23
2023-04-25T12:10:37.364Z,3.46
2023-04-25T12:13:03.864Z,3.70
2023-04-25T12:15:30.387Z,3.41
2023-04-25T12:17:56.918Z,3.31
2023-04-25T12:20:23.399Z,3.46
2023-04-25T12:22:49.825Z,3.27
2023-04-25T12:25:16.234Z,3.47
2023-04-25T12:27:42.814Z,3.69
2023-04-25T12:30:09.325Z,3.66
2023-04-25T12:32:35.935Z,3.43
2023-04-25T12:35:02.396Z,3.35
2023-04-25T12:37:28.934Z,3.27
2023-04-25T12:39:55.386Z,3.30
2023-04-25T12:42:21.784Z,3.16
2023-04-25T12:44:48.283Z,3.13
2023-04-25T12:47:14.817Z,3.30
2023-04-25T12:49:41.286Z,3.07
2023-04-25T12:52:07.755Z,3.13
2023-04-25T12:54:34.192Z,3.25
2023-04-25T12:57:00.665Z,3.18
2023-04-25T12:59:27.100Z,3.14
2023-04-25T13:01:53.635Z,3.32
2023-04-25T13:04:20.337Z,3.01
2023-04-25T13:06:46.938Z,3.01
2023-04-25T13:09:13.798Z,3.32
2023-04-25T13:11:40.450Z,2.96
2023-04-25T13:14:06.897Z,3.08
2023-04-25T13:16:33.388Z,2.92
2023-04-25T13:18:59.952Z,2.91
2023-04-25T13:21:26.405Z,3.08
2023-04-25T13:23:53.145Z,2.73
2023-04-25T13:26:22.915Z,2.93
2023-04-25T13:28:49.371Z,3.17
2023-04-25T13:31:15.824Z,2.85
2023-04-25T13:33:42.317Z,3.09
2023-04-25T13:36:08.736Z,3.00
2023-04-25T13:38:35.219Z,3.21
2023-04-25T13:41:01.732Z,2.82
2023-04-25T13:43:28.158Z,2.87
2023-04-25T13:45:54.604Z,2.74
2023-04-25T13:48:21.093Z,2.94
2023-04-25T13:50:47.772Z,3.17
2023-04-25T13:53:14.233Z,2.71
2023-04-25T13:55:40.720Z,2.81
2023-04-25T13:58:07.173Z,2.73
2023-04-25T14:00:33.600Z,2.80
2023-04-25T14:03:00.163Z,2.91
2023-04-25T14:05:26.671Z,2.65
2023-04-25T14:07:53.148Z,2.55
2023-04-25T14:10:19.587Z,2.81
2023-04-25T14:12:46.029Z,2.63
2023-04-25T14:15:12.464Z,2.62
2023-04-25T14:17:39.023Z,2.58
2023-04-25T14:20:05.558Z,2.59
2023-04-25T14:22:32.013Z,2.62
2023-04-25T14:24:58.486Z,2.50
2023-04-25T14:27:25.792Z,2.73
2023-04-25T14:29:53.755Z,2.62
2023-04-25T14:32:20.293Z,2.82
2023-04-25T14:34:49.556Z,2.81
2023-04-25T14:37:16.055Z,2.72
2023-04-25T14:39:43.376Z,2.71
2023-04-25T14:42:11.197Z,2.56
2023-04-25T14:44:37.694Z,2.68
2023-04-25T14:47:04.328Z,2.51
2023-04-25T14:49:30.875Z,2.66
2023-04-25T14:51:57.331Z,2.52
2023-04-25T14:54:23.834Z,2.38
2023-04-25T14:56:50.265Z,2.55
2023-04-25T14:59:16.740Z,2.45
2023-04-25T15:01:43.297Z,2.71
2023-04-25T15:04:12.916Z,2.49
2023-04-25T15:06:39.559Z,2.42
2023-04-25T15:09:06.254Z,2.45
2023-04-25T15:11:33.587Z,2.47
2023-04-25T15:14:00.128Z,2.56
2023-04-25T15:16:26.638Z,2.33
2023-04-25T15:18:53.185Z,2.67
2023-04-25T15:21:19.661Z,2.41
2023-04-25T15:23:46.172Z,2.43
2023-04-25T15:26:12.709Z,2.58
2023-04-25T15:28:39.176Z,2.44
2023-04-25T15:31:05.693Z,2.34
2023-04-25T15:33:34.995Z,2.37
2023-04-25T15:36:01.493Z,2.48
2023-04-25T15:38:27.949Z,2.39
2023-04-25T15:40:54.459Z,2.31
2023-04-25T15:43:20.900Z,2.47
2023-04-25T15:45:47.416Z,2.62
2023-04-25T15:48:13.977Z,2.63
2023-04-25T15:50:40.542Z,2.46
2023-04-25T15:53:07.471Z,2.56
2023-04-25T15:55:34.161Z,2.67
2023-04-25T15:58:01.329Z,2.73
2023-04-25T16:00:27.872Z,2.57
2023-04-25T16:02:54.550Z,2.75
2023-04-25T16:05:21.230Z,2.53
2023-04-25T16:07:47.987Z,2.50
2023-04-25T16:10:14.510Z,2.65
2023-04-25T16:12:40.919Z,2.55
2023-04-25T16:15:07.388Z,2.88
2023-04-25T16:17:33.975Z,2.62
2023-04-25T16:20:00.448Z,2.76
2023-04-25T16:22:26.890Z,2.74
2023-04-25T16:24:53.315Z,2.75
2023-04-25T16:27:22.801Z,2.40
2023-04-25T16:29:49.215Z,2.36
2023-04-25T16:32:15.643Z,2.61
2023-04-25T16:34:42.593Z,2.37
2023-04-25T16:37:09.250Z,2.49
2023-04-25T16:39:35.771Z,2.45
2023-04-25T16:42:04.550Z,2.48
2023-04-25T16:44:31.295Z,2.34
2023-04-25T16:46:57.791Z,2.38
2023-04-25T16:49:24.241Z,2.94
2023-04-25T16:51:50.791Z,9.85
2023-04-25T16:54:17.253Z,14.18
2023-04-25T16:56:43.747Z,10.86
2023-04-25T16:59:10.214Z,9.80
2023-04-25T17:01:36.695Z,10.30
2023-04-25T17:04:03.371Z,9.46
2023-04-25T17:06:30.035Z,9.33
2023-04-25T17:08:56.507Z,10.73
2023-04-25T17:11:23.016Z,11.77
2023-04-25T17:13:52.552Z,10.66
2023-04-25T17:16:19.114Z,9.86
2023-04-25T17:18:45.655Z,14.37
2023-04-25T17:21:12.107Z,28.98
2023-04-25T17:23:38.597Z,37.77
2023-04-25T17:26:05.068Z,68.51
2023-04-25T17:28:31.517Z,64.91
2023-04-25T17:30:58.087Z,50.65
2023-04-25T17:33:24.608Z,45.81
2023-04-25T17:35:51.077Z,42.90
2023-04-25T17:38:17.527Z,41.10
2023-04-25T17:40:44.037Z,40.83
2023-04-25T17:43:10.490Z,40.47
2023-04-25T17:45:36.955Z,38.67
2023-04-25T17:48:03.501Z,39.58
2023-04-25T17:50:29.966Z,39.14
2023-04-25T17:52:56.384Z,37.95
2023-04-25T17:55:25.786Z,37.32
2023-04-25T17:57:52.259Z,38.10
2023-04-25T18:00:18.703Z,36.21
2023-04-25T18:02:45.300Z,37.35
2023-04-25T18:05:12.052Z,35.73
2023-04-25T18:07:38.982Z,35.35
2023-04-25T18:10:05.542Z,35.88
2023-04-25T18:12:32.073Z,35.37
2023-04-25T18:14:58.528Z,34.70
2023-04-25T18:17:24.967Z,33.26
2023-04-25T18:19:51.421Z,33.02
2023-04-25T18:22:17.867Z,32.20
2023-04-25T18:24:44.350Z,32.31
2023-04-25T18:27:13.902Z,31.89
2023-04-25T18:29:40.368Z,32.05
2023-04-25T18:32:07.030Z,31.11
2023-04-25T18:34:33.579Z,30.92
2023-04-25T18:37:00.025Z,31.66
2023-04-25T18:39:26.700Z,30.90
2023-04-25T18:41:58.035Z,30.19
2023-04-25T18:44:27.651Z,29.84
2023-04-25T18:46:54.099Z,29.37
2023-04-25T18:49:20.531Z,30.08
2023-04-25T18:51:47.001Z,29.32
2023-04-25T18:54:13.465Z,29.29
2023-04-25T18:56:39.927Z,28.82
2023-04-25T18:59:06.467Z,28.97
2023-04-25T19:01:33.086Z,29.01
2023-04-25T19:03:59.935Z,28.70
2023-04-25T19:06:26.773Z,27.89
2023-04-25T19:08:53.480Z,28.08
2023-04-25T19:11:21.246Z,28.63
2023-04-25T19:13:47.826Z,27.72
2023-04-25T19:16:14.349Z,27.27
2023-04-25T19:18:40.949Z,27.07
2023-04-25T19:21:07.400Z,26.93
2023-04-25T19:23:33.894Z,26.70
2023-04-25T19:26:00.325Z,26.12
2023-04-25T19:28:26.756Z,26.41
2023-04-25T19:30:53.344Z,25.70
2023-04-25T19:33:19.891Z,25.06
2023-04-25T19:35:46.397Z,24.66
2023-04-25T19:38:12.954Z,25.09
2023-04-25T19:40:39.450Z,25.72
2023-04-25T19:43:05.981Z,24.73
2023-04-25T19:45:32.521Z,23.96
2023-04-25T19:47:59.438Z,24.38
2023-04-25T19:50:25.990Z,23.28
2023-04-25T19:52:52.507Z,23.54
2023-04-25T19:55:19.028Z,23.17
2023-04-25T19:57:45.607Z,23.30
2023-04-25T20:00:12.181Z,23.27
2023-04-25T20:02:38.889Z,22.75
2023-04-25T20:05:06.125Z,22.97
2023-04-25T20:07:32.717Z,22.53
2023-04-25T20:09:59.175Z,22.55
2023-04-25T20:12:25.727Z,21.87
2023-04-25T20:14:52.286Z,22.64
2023-04-25T20:17:18.800Z,22.07
2023-04-25T20:19:45.293Z,21.56
2023-04-25T20:22:11.747Z,21.86
2023-04-25T20:24:38.219Z,21.45
2023-04-25T20:27:04.759Z,21.56
2023-04-25T20:29:31.278Z,20.96
2023-04-25T20:31:57.876Z,21.32
2023-04-25T20:34:24.417Z,20.21
2023-04-25T20:36:50.868Z,20.59
2023-04-25T20:39:17.439Z,20.90
2023-04-25T20:41:43.996Z,20.42
2023-04-25T20:44:10.467Z,19.80
2023-04-25T20:46:37.027Z,19.66
2023-04-25T20:49:03.478Z,20.25
2023-04-25T20:51:29.977Z,20.11
2023-04-25T20:53:56.531Z,19.63
2023-04-25T20:56:22.975Z,20.24
2023-04-25T20:58:49.806Z,19.50
2023-04-25T21:01:16.691Z,19.70
2023-04-25T21:03:43.651Z,19.07
2023-04-25T21:06:10.481Z,19.64
2023-04-25T21:08:36.955Z,19.19
2023-04-25T21:11:03.508Z,19.13
2023-04-25T21:13:30.038Z,18.99
2023-04-25T21:15:56.631Z,18.79
2023-04-25T21:18:23.095Z,18.40
2023-04-25T21:20:49.686Z,18.32
2023-04-25T21:23:16.180Z,18.62
2023-04-25T21:25:42.696Z,18.24
2023-04-25T21:28:09.268Z,17.78
2023-04-25T21:30:35.825Z,17.42
2023-04-25T21:33:02.365Z,17.81
2023-04-25T21:35:28.957Z,17.93
2023-04-25T21:37:55.475Z,17.90
2023-04-25T21:40:21.996Z,17.61
2023-04-25T21:42:48.546Z,17.36
2023-04-25T21:45:15.072Z,17.38
2023-04-25T21:47:41.679Z,17.90
2023-04-25T21:50:11.402Z,17.57
2023-04-25T21:52:37.895Z,17.37
2023-04-25T21:55:04.408Z,17.41
2023-04-25T21:57:30.937Z,17.61
2023-04-25T21:59:57.559Z,17.32
2023-04-25T22:02:24.383Z,17.09
2023-04-25T22:04:51.206Z,16.94
2023-04-25T22:07:17.867Z,16.71
2023-04-25T22:09:54.457Z,17.24
2023-04-25T22:12:22.334Z,16.86
2023-04-25T22:14:48.879Z,16.07
2023-04-25T22:17:15.346Z,16.55
2023-04-25T22:19:41.849Z,17.07
2023-04-25T22:22:08.459Z,16.97
2023-04-25T22:24:35.036Z,16.38
2023-04-25T22:27:01.498Z,16.20
2023-04-25T22:29:27.951Z,16.17
2023-04-25T22:31:54.522Z,16.34
2023-04-25T22:34:21.203Z,16.15
2023-04-25T22:36:47.733Z,16.29
2023-04-25T22:39:14.088Z,16.09
2023-04-25T22:41:40.611Z,16.61
2023-04-25T22:44:07.178Z,16.12
2023-04-25T22:46:33.656Z,15.24
2023-04-25T22:49:00.278Z,15.71
2023-04-25T22:51:26.765Z,15.72
2023-04-25T22:53:55.024Z,15.56
2023-04-25T22:56:21.531Z,15.96
2023-04-25T22:58:47.982Z,15.11
2023-04-25T23:01:15.111Z,15.34
2023-04-25T23:03:42.762Z,14.90
2023-04-25T23:06:09.244Z,15.70
2023-04-25T23:08:35.733Z,15.17
2023-04-25T23:11:02.227Z,15.36
2023-04-25T23:13:28.751Z,15.20
2023-04-25T23:15:55.205Z,15.29
2023-04-25T23:18:21.629Z,15.62
2023-04-25T23:20:48.052Z,14.68
2023-04-25T23:23:14.489Z,14.97
2023-04-25T23:25:40.906Z,14.95
2023-04-25T23:28:07.457Z,14.75
2023-04-25T23:30:33.965Z,15.05
2023-04-25T23:33:02.834Z,14.72
2023-04-25T23:35:29.298Z,14.41
2023-04-25T23:37:56.086Z,14.39
2023-04-25T23:40:22.912Z,14.35
2023-04-25T23:42:49.373Z,14.26
2023-04-25T23:45:15.831Z,14.20
2023-04-25T23:47:42.300Z,14.33
2023-04-25T23:50:08.736Z,14.17
2023-04-25T23:52:35.169Z,14.16
2023-04-25T23:55:01.657Z,14.58
2023-04-25T23:57:28.075Z,14.05
2023-04-25T23:59:54.569Z,13.75
